sensor_id;sensor_type;location;lat;lon;timestamp;pressure;altitude;pressure_sealevel;temperature;humidity
61408;BME280;47274;43.054;25.146;2023-07-31T00:01:03;95190.09;;;20.92;89.58
61408;BME280;47274;43.054;25.146;2023-07-31T00:03:29;95209.63;;;21.01;88.91
61408;BME280;47274;43.054;25.146;2023-07-31T00:05:58;95206.66;;;20.79;91.94
61408;BME280;47274;43.054;25.146;2023-07-31T00:08:24;95187.97;;;20.64;91.40
61408;BME280;47274;43.054;25.146;2023-07-31T00:10:52;95146.38;;;20.51;90.87
61408;BME280;47274;43.054;25.146;2023-07-31T00:13:31;95093.59;;;20.00;92.49
61408;BME280;47274;43.054;25.146;2023-07-31T00:16:00;95142.97;;;20.32;96.37
61408;BME280;47274;43.054;25.146;2023-07-31T00:18:28;95105.69;;;19.70;100.00
61408;BME280;47274;43.054;25.146;2023-07-31T00:20:56;95138.88;;;19.74;99.88
61408;BME280;47274;43.054;25.146;2023-07-31T00:23:22;95151.66;;;19.76;100.00
61408;BME280;47274;43.054;25.146;2023-07-31T00:25:48;95158.06;;;19.80;100.00
61408;BME280;47274;43.054;25.146;2023-07-31T00:28:14;95167.66;;;19.79;100.00
61408;BME280;47274;43.054;25.146;2023-07-31T00:30:39;95172.88;;;20.04;100.00
61408;BME280;47274;43.054;25.146;2023-07-31T00:33:05;95161.06;;;20.02;100.00
61408;BME280;47274;43.054;25.146;2023-07-31T00:35:36;95110.25;;;19.42;100.00
61408;BME280;47274;43.054;25.146;2023-07-31T00:38:02;95104.13;;;19.55;100.00
61408;BME280;47274;43.054;25.146;2023-07-31T18:43:18;95283.47;;;22.41;73.47
61408;BME280;47274;43.054;25.146;2023-07-31T18:45:53;95203.94;;;21.83;73.99
61408;BME280;47274;43.054;25.146;2023-07-31T18:48:19;95242.38;;;22.06;74.06
61408;BME280;47274;43.054;25.146;2023-07-31T18:50:45;95235.00;;;22.03;73.25
61408;BME280;47274;43.054;25.146;2023-07-31T18:53:11;95216.22;;;21.94;73.50
61408;BME280;47274;43.054;25.146;2023-07-31T18:55:55;95271.41;;;22.28;74.61
61408;BME280;47274;43.054;25.146;2023-07-31T18:58:21;95263.41;;;22.11;74.42
61408;BME280;47274;43.054;25.146;2023-07-31T19:00:52;95223.16;;;21.89;74.26
61408;BME280;47274;43.054;25.146;2023-07-31T19:03:18;95203.50;;;21.86;74.62
61408;BME280;47274;43.054;25.146;2023-07-31T19:05:49;95255.72;;;22.16;74.33
61408;BME280;47274;43.054;25.146;2023-07-31T19:08:17;95252.75;;;22.13;73.24
61408;BME280;47274;43.054;25.146;2023-07-31T19:10:43;95245.53;;;21.96;74.72
61408;BME280;47274;43.054;25.146;2023-07-31T19:13:10;95205.84;;;21.64;74.91
61408;BME280;47274;43.054;25.146;2023-07-31T19:15:38;95229.72;;;21.80;75.21
61408;BME280;47274;43.054;25.146;2023-07-31T19:18:07;95265.66;;;21.96;76.30
61408;BME280;47274;43.054;25.146;2023-07-31T19:20:33;95282.47;;;22.12;75.06
61408;BME280;47274;43.054;25.146;2023-07-31T19:22:59;95296.75;;;22.16;74.36
61408;BME280;47274;43.054;25.146;2023-07-31T19:25:25;95291.78;;;22.26;75.45
61408;BME280;47274;43.054;25.146;2023-07-31T19:27:54;95299.25;;;22.22;74.86
61408;BME280;47274;43.054;25.146;2023-07-31T19:30:20;95263.03;;;21.96;74.72
61408;BME280;47274;43.054;25.146;2023-07-31T19:32:45;95292.31;;;22.16;73.44
61408;BME280;47274;43.054;25.146;2023-07-31T19:35:12;95293.44;;;22.20;74.23
61408;BME280;47274;43.054;25.146;2023-07-31T19:37:38;95250.38;;;21.81;75.34
61408;BME280;47274;43.054;25.146;2023-07-31T19:40:05;95287.97;;;21.80;77.47
61408;BME280;47274;43.054;25.146;2023-07-31T19:42:31;95290.63;;;21.62;78.15
61408;BME280;47274;43.054;25.146;2023-07-31T19:44:58;95288.63;;;21.45;81.13
61408;BME280;47274;43.054;25.146;2023-07-31T19:47:24;95283.75;;;21.30;79.72
61408;BME280;47274;43.054;25.146;2023-07-31T19:49:50;95264.28;;;20.96;79.77
61408;BME280;47274;43.054;25.146;2023-07-31T19:52:15;95239.06;;;20.72;81.58
61408;BME280;47274;43.054;25.146;2023-07-31T19:54:44;95294.78;;;20.96;83.46
61408;BME280;47274;43.054;25.146;2023-07-31T19:57:10;95261.72;;;20.46;85.14
61408;BME280;47274;43.054;25.146;2023-07-31T19:59:36;95251.44;;;20.26;86.00
61408;BME280;47274;43.054;25.146;2023-07-31T20:02:02;95291.09;;;20.60;87.53
61408;BME280;47274;43.054;25.146;2023-07-31T20:04:28;95294.13;;;20.57;85.43
61408;BME280;47274;43.054;25.146;2023-07-31T20:06:54;95279.53;;;20.49;87.06
61408;BME280;47274;43.054;25.146;2023-07-31T20:09:20;95272.97;;;20.40;87.83
61408;BME280;47274;43.054;25.146;2023-07-31T20:11:47;95278.06;;;20.35;87.72
61408;BME280;47274;43.054;25.146;2023-07-31T20:14:12;95269.03;;;20.38;87.90
61408;BME280;47274;43.054;25.146;2023-07-31T20:16:38;95285.50;;;20.56;84.86
61408;BME280;47274;43.054;25.146;2023-07-31T20:19:06;95273.16;;;20.45;84.35
61408;BME280;47274;43.054;25.146;2023-07-31T20:21:33;95265.38;;;20.39;85.13
61408;BME280;47274;43.054;25.146;2023-07-31T20:24:07;95276.75;;;20.44;84.92
61408;BME280;47274;43.054;25.146;2023-07-31T20:26:33;95282.53;;;20.53;82.76
61408;BME280;47274;43.054;25.146;2023-07-31T20:28:59;95286.53;;;20.55;83.20
61408;BME280;47274;43.054;25.146;2023-07-31T20:31:26;95290.13;;;20.54;81.50
61408;BME280;47274;43.054;25.146;2023-07-31T20:33:54;95259.16;;;20.40;80.97
61408;BME280;47274;43.054;25.146;2023-07-31T20:36:20;95283.94;;;20.55;80.94
61408;BME280;47274;43.054;25.146;2023-07-31T20:38:46;95270.91;;;20.49;79.79
61408;BME280;47274;43.054;25.146;2023-07-31T20:41:12;95281.69;;;20.59;80.34
61408;BME280;47274;43.054;25.146;2023-07-31T20:43:40;95259.44;;;20.31;81.63
61408;BME280;47274;43.054;25.146;2023-07-31T20:46:07;95260.66;;;20.29;81.59
61408;BME280;47274;43.054;25.146;2023-07-31T20:48:35;95281.97;;;20.44;81.95
61408;BME280;47274;43.054;25.146;2023-07-31T20:51:01;95283.41;;;20.40;82.43
61408;BME280;47274;43.054;25.146;2023-07-31T20:53:28;95290.66;;;20.38;81.47
61408;BME280;47274;43.054;25.146;2023-07-31T20:55:54;95255.34;;;20.17;82.75
61408;BME280;47274;43.054;25.146;2023-07-31T20:58:20;95266.75;;;20.16;83.82
61408;BME280;47274;43.054;25.146;2023-07-31T21:00:46;95284.81;;;20.18;85.23
61408;BME280;47274;43.054;25.146;2023-07-31T21:03:11;95290.84;;;20.11;85.42
61408;BME280;47274;43.054;25.146;2023-07-31T21:05:37;95299.69;;;20.10;86.84
61408;BME280;47274;43.054;25.146;2023-07-31T21:08:03;95298.75;;;19.98;88.20
61408;BME280;47274;43.054;25.146;2023-07-31T21:10:29;95293.25;;;19.81;89.24
61408;BME280;47274;43.054;25.146;2023-07-31T21:12:56;95302.63;;;19.82;90.06
61408;BME280;47274;43.054;25.146;2023-07-31T21:15:22;95242.75;;;19.44;90.37
61408;BME280;47274;43.054;25.146;2023-07-31T21:17:49;95260.53;;;19.54;90.12
61408;BME280;47274;43.054;25.146;2023-07-31T21:20:15;95283.31;;;19.65;89.03
61408;BME280;47274;43.054;25.146;2023-07-31T21:22:41;95311.47;;;19.81;90.56
61408;BME280;47274;43.054;25.146;2023-07-31T21:25:07;95294.06;;;19.75;90.48
61408;BME280;47274;43.054;25.146;2023-07-31T21:27:33;95301.84;;;19.82;89.24
61408;BME280;47274;43.054;25.146;2023-07-31T21:29:59;95289.78;;;19.94;86.46
61408;BME280;47274;43.054;25.146;2023-07-31T21:32:25;95299.63;;;20.17;83.21
61408;BME280;47274;43.054;25.146;2023-07-31T21:34:51;95265.81;;;20.10;81.61
61408;BME280;47274;43.054;25.146;2023-07-31T21:37:17;95297.69;;;20.38;80.38
61408;BME280;47274;43.054;25.146;2023-07-31T21:39:45;95300.22;;;20.44;80.95
61408;BME280;47274;43.054;25.146;2023-07-31T21:42:11;95275.69;;;20.27;81.19
61408;BME280;47274;43.054;25.146;2023-07-31T21:44:37;95289.28;;;20.35;80.35
61408;BME280;47274;43.054;25.146;2023-07-31T21:47:05;95279.13;;;20.27;79.83
61408;BME280;47274;43.054;25.146;2023-07-31T21:49:31;95289.59;;;20.46;78.74
61408;BME280;47274;43.054;25.146;2023-07-31T21:51:57;95277.13;;;20.23;79.27
61408;BME280;47274;43.054;25.146;2023-07-31T21:54:23;95283.00;;;20.18;80.21
61408;BME280;47274;43.054;25.146;2023-07-31T21:56:48;95285.41;;;20.13;81.94
61408;BME280;47274;43.054;25.146;2023-07-31T21:59:14;95248.19;;;19.81;81.86
61408;BME280;47274;43.054;25.146;2023-07-31T22:01:42;95250.97;;;19.79;82.34
61408;BME280;47274;43.054;25.146;2023-07-31T22:04:08;95269.63;;;19.83;82.78
61408;BME280;47274;43.054;25.146;2023-07-31T22:06:34;95295.53;;;19.96;83.56
61408;BME280;47274;43.054;25.146;2023-07-31T22:09:03;95288.59;;;19.90;84.36
61408;BME280;47274;43.054;25.146;2023-07-31T22:11:29;95279.28;;;19.69;86.58
61408;BME280;47274;43.054;25.146;2023-07-31T22:13:55;95269.72;;;19.56;85.18
61408;BME280;47274;43.054;25.146;2023-07-31T22:16:21;95270.25;;;19.72;83.47
61408;BME280;47274;43.054;25.146;2023-07-31T22:18:46;95242.28;;;19.60;81.75
61408;BME280;47274;43.054;25.146;2023-07-31T22:21:12;95239.03;;;19.72;80.45
61408;BME280;47274;43.054;25.146;2023-07-31T22:23:40;95226.72;;;19.85;78.62
61408;BME280;47274;43.054;25.146;2023-07-31T22:26:06;95264.09;;;20.23;76.64
61408;BME280;47274;43.054;25.146;2023-07-31T22:28:34;95277.63;;;20.38;76.37
61408;BME280;47274;43.054;25.146;2023-07-31T22:31:00;95268.13;;;20.44;75.84
61408;BME280;47274;43.054;25.146;2023-07-31T22:33:26;95216.84;;;20.19;75.08
61408;BME280;47274;43.054;25.146;2023-07-31T22:35:51;95221.47;;;20.17;73.71
61408;BME280;47274;43.054;25.146;2023-07-31T22:38:20;95205.91;;;20.10;74.14
61408;BME280;47274;43.054;25.146;2023-07-31T22:40:46;95287.28;;;20.63;74.52
61408;BME280;47274;43.054;25.146;2023-07-31T22:43:12;95214.94;;;20.08;74.54
61408;BME280;47274;43.054;25.146;2023-07-31T22:45:45;95292.97;;;20.53;74.47
61408;BME280;47274;43.054;25.146;2023-07-31T22:48:24;95182.66;;;19.84;75.09
61408;BME280;47274;43.054;25.146;2023-07-31T22:50:53;95233.91;;;20.15;74.72
61408;BME280;47274;43.054;25.146;2023-07-31T22:53:21;95297.78;;;20.49;75.01
61408;BME280;47274;43.054;25.146;2023-07-31T22:55:47;95211.78;;;19.99;74.77
61408;BME280;47274;43.054;25.146;2023-07-31T22:58:13;95223.78;;;20.07;74.70
61408;BME280;47274;43.054;25.146;2023-07-31T23:00:49;95260.75;;;20.16;74.67
61408;BME280;47274;43.054;25.146;2023-07-31T23:03:25;95283.78;;;20.44;74.40
61408;BME280;47274;43.054;25.146;2023-07-31T23:06:00;95256.25;;;20.29;73.98
61408;BME280;47274;43.054;25.146;2023-07-31T23:08:36;95245.06;;;20.22;74.33
61408;BME280;47274;43.054;25.146;2023-07-31T23:11:04;95187.66;;;19.85;74.13
61408;BME280;47274;43.054;25.146;2023-07-31T23:13:39;95169.16;;;19.69;73.77
61408;BME280;47274;43.054;25.146;2023-07-31T23:16:08;95264.47;;;20.26;73.80
61408;BME280;47274;43.054;25.146;2023-07-31T23:18:44;95179.41;;;19.63;73.37
61408;BME280;47274;43.054;25.146;2023-07-31T23:21:15;95191.78;;;19.68;72.48
61408;BME280;47274;43.054;25.146;2023-07-31T23:23:43;95253.81;;;20.03;72.77
61408;BME280;47274;43.054;25.146;2023-07-31T23:26:09;95234.53;;;19.85;73.08
61408;BME280;47274;43.054;25.146;2023-07-31T23:28:57;95210.38;;;19.72;72.93
61408;BME280;47274;43.054;25.146;2023-07-31T23:31:23;95187.81;;;19.59;72.95
61408;BME280;47274;43.054;25.146;2023-07-31T23:33:49;95207.34;;;19.75;73.01
61408;BME280;47274;43.054;25.146;2023-07-31T23:36:16;95198.03;;;19.60;73.23
61408;BME280;47274;43.054;25.146;2023-07-31T23:38:41;95266.44;;;20.06;72.47
61408;BME280;47274;43.054;25.146;2023-07-31T23:41:07;95210.25;;;19.60;72.91
61408;BME280;47274;43.054;25.146;2023-07-31T23:43:34;95237.38;;;19.77;72.60
61408;BME280;47274;43.054;25.146;2023-07-31T23:46:07;95216.25;;;19.60;72.88
61408;BME280;47274;43.054;25.146;2023-07-31T23:48:43;95204.47;;;19.51;72.34
61408;BME280;47274;43.054;25.146;2023-07-31T23:51:13;95230.09;;;19.54;72.16
61408;BME280;47274;43.054;25.146;2023-07-31T23:53:53;95258.00;;;19.79;72.53
61408;BME280;47274;43.054;25.146;2023-07-31T23:56:26;95195.72;;;19.46;72.70
61408;BME280;47274;43.054;25.146;2023-07-31T23:58:57;95210.69;;;19.50;71.61
